Time;durP1;ratioP1;P1;durP2;ratioP2;P2;SDS_P1;SDS_P2;PMS_P1;PMS_P2;Temp;Humidity;BMP_temperature;BMP_pressure;BME280_temperature;BME280_humidity;BME280_pressure;Samples;Min_cycle;Max_cycle;Signal;HPM_P1;HPM_P2
2023/10/09 00:02:09;;;;;;;;;28.33;25.00;;;;;19.55;65.00;101635.78;5059774;28;45231;-80
2023/10/09 00:04:36;;;;;;;;;28.67;24.67;;;;;19.56;64.91;101642.91;5060470;28;46140;-80
2023/10/09 00:07:03;;;;;;;;;28.67;27.00;;;;;19.55;65.11;101643.88;5057678;28;46193;-82
2023/10/09 00:09:32;;;;;;;;;27.67;26.00;;;;;19.54;65.00;101628.66;5060852;28;45353;-81
2023/10/09 00:12:00;;;;;;;;;34.33;30.33;;;;;19.59;65.16;101631.88;5059885;28;45436;-81
2023/10/09 00:14:30;;;;;;;;;30.33;23.67;;;;;19.57;64.52;101629.28;5060054;28;45594;-81
2023/10/09 00:17:17;;;;;;;;;31.00;26.00;;;;;19.60;64.97;101633.59;5059929;28;46048;-81
2023/10/09 00:19:43;;;;;;;;;26.00;24.00;;;;;19.61;64.79;101633.47;5061019;28;45465;-80
2023/10/09 00:24:51;;;;;;;;;27.33;24.67;;;;;19.52;64.90;101622.47;5059566;28;45327;-80
2023/10/09 00:27:21;;;;;;;;;28.67;24.67;;;;;19.52;65.14;101628.75;5049248;28;45382;-81
2023/10/09 00:29:47;;;;;;;;;34.33;28.00;;;;;19.54;65.17;101640.28;5041804;28;45679;-82
2023/10/09 00:32:16;;;;;;;;;29.33;29.00;;;;;19.43;65.79;101630.31;5047857;28;45364;-82
2023/10/09 00:34:42;;;;;;;;;34.00;29.67;;;;;19.39;65.63;101622.56;5062034;28;44897;-81
2023/10/09 00:37:22;;;;;;;;;28.67;26.33;;;;;19.40;65.52;101621.59;5060481;28;45400;-82
2023/10/09 00:39:49;;;;;;;;;27.00;25.33;;;;;19.40;65.41;101621.59;5060874;28;45271;-81
2023/10/09 00:42:25;;;;;;;;;25.00;25.00;;;;;19.40;65.93;101621.59;5060677;28;45227;-81
2023/10/09 00:44:51;;;;;;;;;25.00;22.67;;;;;19.33;65.82;101601.47;5052611;28;45264;-81
2023/10/09 00:47:20;;;;;;;;;26.67;23.00;;;;;19.39;65.84;101609.94;5061144;28;45456;-81
2023/10/09 00:49:48;;;;;;;;;23.67;23.33;;;;;19.49;65.74;101620.03;5060827;28;45530;-80
2023/10/09 00:52:17;;;;;;;;;25.33;24.00;;;;;19.50;65.54;101622.59;5060576;28;45364;-80
2023/10/09 00:54:50;;;;;;;;;20.33;20.33;;;;;19.44;65.26;101598.81;5061203;28;45418;-82
2023/10/09 00:57:18;;;;;;;;;25.00;22.00;;;;;19.47;65.50;101601.25;5061876;28;46186;-81
2023/10/09 00:59:48;;;;;;;;;20.67;20.67;;;;;19.45;65.47;101603.22;5062525;28;45325;-81
2023/10/09 01:02:19;;;;;;;;;24.67;20.67;;;;;19.41;65.62;101602.63;5059385;28;45347;-81
2023/10/09 01:04:44;;;;;;;;;24.00;23.00;;;;;19.38;65.73;101597.44;5059015;28;45371;-80
2023/10/09 01:07:15;;;;;;;;;22.00;20.67;;;;;19.31;65.45;101579.16;5057926;28;45989;-81
2023/10/09 01:09:44;;;;;;;;;18.67;18.00;;;;;19.26;65.40;101570.53;5058726;28;45374;-81
2023/10/09 01:12:16;;;;;;;;;21.00;21.00;;;;;19.36;65.64;101594.00;5059344;28;45297;-80
2023/10/09 01:14:43;;;;;;;;;26.33;21.00;;;;;19.22;65.98;101580.72;5057888;28;45471;-82
2023/10/09 01:17:09;;;;;;;;;26.33;24.33;;;;;19.15;66.68;101566.00;5058096;28;46077;-82
2023/10/09 01:19:34;;;;;;;;;21.33;19.33;;;;;19.20;66.68;101587.22;5058185;28;45406;-81
2023/10/09 01:22:16;;;;;;;;;22.33;20.67;;;;;19.15;66.74;101585.72;5057681;28;45385;-80
2023/10/09 01:24:41;;;;;;;;;20.00;20.00;;;;;19.12;66.58;101582.38;5057284;28;45569;-82
2023/10/09 01:27:16;;;;;;;;;23.67;23.33;;;;;19.13;66.59;101582.25;5058850;28;45419;-81
2023/10/09 01:29:43;;;;;;;;;23.00;23.00;;;;;19.12;66.73;101568.91;5059856;28;45398;-82
2023/10/09 01:32:16;;;;;;;;;25.00;21.00;;;;;19.17;66.56;101565.88;5052858;28;45518;-82
2023/10/09 01:34:44;;;;;;;;;22.00;20.67;;;;;19.18;66.64;101560.38;5049344;28;45595;-81
2023/10/09 01:37:22;;;;;;;;;23.00;21.67;;;;;19.17;66.70;101557.78;5055273;28;46447;-81
2023/10/09 01:39:52;;;;;;;;;21.67;19.00;;;;;19.12;67.39;101564.38;5053320;28;45541;-80
2023/10/09 01:42:34;;;;;;;;;26.33;20.00;;;;;18.99;67.66;101552.81;5057819;28;45457;-79
2023/10/09 01:45:26;;;;;;;;;23.67;21.67;;;;;19.04;67.57;101565.94;5060435;28;45299;-81
2023/10/09 01:47:55;;;;;;;;;18.33;18.33;;;;;19.00;67.65;101565.31;5045732;28;46516;-81
2023/10/09 01:50:24;;;;;;;;;25.00;21.00;;;;;18.96;67.98;101563.81;5039565;28;45294;-82
2023/10/09 01:52:51;;;;;;;;;27.67;20.33;;;;;18.97;67.52;101565.53;5040695;28;45374;-80
2023/10/09 01:58:05;;;;;;;;;26.00;20.33;;;;;18.98;67.88;101563.72;5057686;28;45537;-81
2023/10/09 02:00:42;;;;;;;;;20.33;19.00;;;;;18.88;67.74;101536.63;5057743;28;45232;-80
2023/10/09 02:03:12;;;;;;;;;26.00;22.00;;;;;18.83;68.03;101526.16;5057873;28;45444;-81
2023/10/09 02:05:38;;;;;;;;;19.00;19.00;;;;;18.84;67.76;101527.88;5058388;28;45182;-81
2023/10/09 02:08:04;;;;;;;;;20.33;19.00;;;;;18.97;67.62;101543.97;5058196;28;45536;-81
2023/10/09 02:12:59;;;;;;;;;17.00;16.33;;;;;18.82;67.86;101535.22;5059079;28;45215;-81
2023/10/09 02:18:19;;;;;;;;;19.00;19.00;;;;;18.80;68.60;101536.31;5059208;28;45401;-81
2023/10/09 02:20:55;;;;;;;;;24.00;23.00;;;;;18.82;68.33;101553.22;5075343;28;45445;-81
2023/10/09 02:23:24;;;;;;;;;19.33;18.67;;;;;18.72;68.49;101527.94;5059498;28;45364;-81
2023/10/09 02:25:53;;;;;;;;;24.67;23.00;;;;;18.76;68.54;101540.25;5058288;28;45272;-81
2023/10/09 02:28:18;;;;;;;;;39.67;33.00;;;;;18.67;68.71;101524.75;5058421;28;47061;-81
2023/10/09 02:30:47;;;;;;;;;25.33;25.33;;;;;18.70;68.64;101538.84;5058507;28;45367;-80
2023/10/09 02:33:27;;;;;;;;;37.67;34.67;;;;;18.69;68.91;101536.28;5058992;28;45231;-81
2023/10/09 02:35:54;;;;;;;;;19.50;19.50;;;;;18.68;69.25;101543.50;5058933;28;45341;-81
2023/10/09 02:38:22;;;;;;;;;27.00;21.33;;;;;18.70;69.11;101532.59;5058775;28;46545;-81
2023/10/09 02:41:18;;;;;;;;;26.67;26.00;;;;;18.69;68.92;101529.03;5058095;28;45341;-82
2023/10/09 02:43:47;;;;;;;;;22.33;19.00;;;;;18.55;69.88;101515.72;5052743;28;45752;-80
2023/10/09 02:48:52;;;;;;;;;21.67;19.33;;;;;18.43;70.16;101519.31;5054770;28;45265;-80
2023/10/09 02:53:55;;;;;;;;;27.67;24.67;;;;;18.44;70.51;101554.22;5057758;28;45384;-81
2023/10/09 02:56:24;;;;;;;;;20.00;20.00;;;;;18.31;71.42;101549.84;5057518;28;45232;-80
2023/10/09 02:58:53;;;;;;;;;21.33;16.67;;;;;18.26;70.83;101542.13;5055846;28;45377;-82
2023/10/09 03:01:19;;;;;;;;;24.33;23.67;;;;;18.25;71.19;101538.56;5055220;28;45448;-81
2023/10/09 03:03:46;;;;;;;;;25.00;21.33;;;;;18.18;71.20;101545.34;5054633;28;45300;-82
2023/10/09 03:06:13;;;;;;;;;24.00;23.33;;;;;18.12;71.36;101553.03;5055370;28;46693;-81
2023/10/09 03:08:40;;;;;;;;;21.33;18.00;;;;;18.04;72.10;101547.34;5055799;28;46067;-83
2023/10/09 03:11:13;;;;;;;;;22.00;20.00;;;;;17.96;72.22;101556.81;5055763;28;46064;-82
2023/10/09 03:13:43;;;;;;;;;22.00;19.33;;;;;17.84;72.22;101548.75;5055136;28;45368;-82
2023/10/09 03:16:14;;;;;;;;;19.67;16.00;;;;;17.80;72.15;101549.94;5055084;28;45563;-82
2023/10/09 03:18:40;;;;;;;;;16.67;16.00;;;;;17.84;72.41;101552.34;5054000;28;46491;-82
2023/10/09 03:21:06;;;;;;;;;18.00;15.00;;;;;17.82;72.22;101550.69;5055241;28;45310;-80
2023/10/09 03:23:32;;;;;;;;;18.67;17.00;;;;;17.77;71.88;101529.50;5053283;28;45837;-82
2023/10/09 03:25:58;;;;;;;;;21.33;19.00;;;;;17.83;71.52;101525.50;5055252;28;45621;-81
2023/10/09 03:28:24;;;;;;;;;20.67;18.67;;;;;17.96;71.77;101542.50;5054884;28;45504;-82
2023/10/09 03:30:50;;;;;;;;;19.67;18.33;;;;;17.91;71.89;101536.59;5054183;28;54346;-81
2023/10/09 03:33:17;;;;;;;;;22.33;20.00;;;;;17.82;72.33;101534.56;5055842;28;45400;-82
2023/10/09 03:35:42;;;;;;;;;18.67;18.67;;;;;17.86;71.75;101549.53;5055874;28;45667;-81
2023/10/09 03:38:18;;;;;;;;;20.33;19.00;;;;;17.86;72.28;101555.78;5054961;28;45828;-81
2023/10/09 03:40:46;;;;;;;;;18.67;17.67;;;;;17.81;72.54;101557.91;5052788;28;45506;-81
2023/10/09 03:43:12;;;;;;;;;22.00;19.00;;;;;17.67;72.44;101542.72;5041992;28;45270;-81
2023/10/09 03:45:39;;;;;;;;;16.67;15.00;;;;;17.72;72.15;101560.41;5034452;28;48093;-81
2023/10/09 03:50:35;;;;;;;;;15.33;12.00;;;;;17.73;72.33;101562.13;5055834;28;45303;-82
2023/10/09 03:53:03;;;;;;;;;10.33;10.33;;;;;17.65;71.97;101550.03;5056363;28;45468;-81
2023/10/09 03:55:29;;;;;;;;;15.67;14.00;;;;;17.65;71.95;101558.09;5056639;28;45398;-81
2023/10/09 03:57:57;;;;;;;;;13.67;12.00;;;;;17.57;72.10;101555.09;5055281;28;54921;-81
2023/10/09 04:00:29;;;;;;;;;16.00;14.33;;;;;17.55;72.41;101557.03;5058116;28;45520;-81
2023/10/09 04:02:59;;;;;;;;;12.67;12.33;;;;;17.65;72.08;101568.88;5063216;28;45400;-82
2023/10/09 04:05:25;;;;;;;;;14.33;12.33;;;;;17.62;72.75;101574.47;5061839;28;45424;-81
2023/10/09 04:07:53;;;;;;;;;11.00;11.00;;;;;17.55;72.14;101551.66;5062055;28;45358;-79
2023/10/09 04:13:08;;;;;;;;;14.67;12.00;;;;;17.54;72.07;101549.94;5062586;28;45392;-80
2023/10/09 04:15:35;;;;;;;;;12.67;10.67;;;;;17.57;72.31;101571.22;5063125;28;45307;-80
2023/10/09 04:18:01;;;;;;;;;12.67;11.00;;;;;17.50;72.59;101559.19;5063280;28;46104;-81
2023/10/09 04:20:55;;;;;;;;;16.00;15.00;;;;;17.54;72.49;101571.44;5064913;28;45311;-80
2023/10/09 04:23:16;;;;;;;;;14.33;13.00;;;;;17.50;72.33;101545.75;5064886;28;45560;-80
2023/10/09 04:25:42;;;;;;;;;15.67;12.33;;;;;17.47;72.22;101537.03;5063821;28;45449;-81
2023/10/09 04:30:42;;;;;;;;;14.00;11.33;;;;;17.54;72.38;101560.69;5061141;28;45682;-82
2023/10/09 04:33:27;;;;;;;;;11.00;11.00;;;;;17.37;72.45;101536.81;5061709;28;45456;-83
2023/10/09 04:36:15;;;;;;;;;15.33;12.67;;;;;17.47;72.31;101553.16;5061313;28;45311;-81
2023/10/09 04:38:38;;;;;;;;;14.00;14.00;;;;;17.52;72.43;101557.25;5060848;28;45385;-80
2023/10/09 04:41:08;;;;;;;;;19.00;15.00;;;;;17.47;72.29;101537.03;5060269;28;45480;-81
2023/10/09 04:43:33;;;;;;;;;12.00;12.00;;;;;17.50;72.32;101547.56;5059649;28;45309;-82
2023/10/09 04:46:23;;;;;;;;;14.33;11.00;;;;;17.44;72.65;101548.84;5060297;28;49990;-82
2023/10/09 04:48:48;;;;;;;;;15.33;14.33;;;;;17.46;72.43;101557.69;5060523;28;46912;-81
2023/10/09 04:51:36;;;;;;;;;15.67;14.33;;;;;17.37;72.43;101540.34;5057667;28;45313;-82
2023/10/09 04:54:13;;;;;;;;;11.33;11.33;;;;;17.45;72.29;101555.97;5058124;28;45433;-80
2023/10/09 04:56:51;;;;;;;;;12.67;12.00;;;;;17.39;72.47;101564.44;5052384;28;45263;-80
2023/10/09 04:59:18;;;;;;;;;12.33;12.33;;;;;17.34;72.91;101571.97;5042550;28;47091;-79
2023/10/09 05:01:57;;;;;;;;;10.67;10.67;;;;;17.19;72.93;101549.69;5058926;28;45440;-81
2023/10/09 05:04:39;;;;;;;;;13.33;12.67;;;;;17.23;73.50;101571.84;5059209;28;45264;-81
2023/10/09 05:07:24;;;;;;;;;16.33;14.33;;;;;17.11;73.45;101562.78;5056328;28;45383;-81
2023/10/09 05:09:56;;;;;;;;;14.33;11.33;;;;;17.16;73.70;101579.47;5056279;28;45744;-81
2023/10/09 05:12:26;;;;;;;;;13.00;11.33;;;;;16.97;73.41;101549.44;5057238;28;45331;-81
2023/10/09 05:15:13;;;;;;;;;15.67;12.33;;;;;17.08;73.32;101576.44;5060884;28;45278;-80
2023/10/09 05:17:39;;;;;;;;;16.00;12.00;;;;;17.05;73.85;101590.06;5061463;28;45375;-81
2023/10/09 05:23:07;;;;;;;;;16.33;9.00;;;;;17.00;73.89;101582.31;5057410;28;45267;-80
2023/10/09 05:28:36;;;;;;;;;11.00;11.00;;;;;16.99;73.68;101583.28;5059421;28;45350;-83
2023/10/09 05:31:33;;;;;;;;;10.67;10.00;;;;;16.80;73.37;101561.31;5064388;28;45350;-84
2023/10/09 05:34:01;;;;;;;;;15.33;12.00;;;;;16.96;73.71;101579.97;5064438;28;45408;-83
2023/10/09 05:49:54;;;;;;;;;15.67;12.33;;;;;16.65;74.52;101586.44;5057804;28;45254;-82
2023/10/09 05:52:42;;;;;;;;;12.67;8.67;;;;;16.76;74.50;101595.56;5057017;28;45661;-80
2023/10/09 05:58:53;;;;;;;;;12.33;11.00;;;;;16.68;75.02;101592.53;5051966;28;45476;-80
2023/10/09 06:03:23;;;;;;;;;15.33;12.67;;;;;16.58;75.13;101579.78;5054010;28;45360;-83
2023/10/09 06:08:26;;;;;;;;;13.00;11.00;;;;;16.65;74.84;101586.44;5059197;28;45231;-83
2023/10/09 06:13:45;;;;;;;;;10.67;9.67;;;;;16.68;74.93;101586.31;5055909;28;46607;-81
2023/10/09 06:16:31;;;;;;;;;15.33;13.33;;;;;16.53;74.81;101562.13;5054160;28;45465;-82
2023/10/09 06:19:12;;;;;;;;;15.33;12.67;;;;;16.76;74.87;101590.19;5049602;28;45335;-81
2023/10/09 06:34:57;;;;;;;;;20.67;14.00;;;;;16.95;74.36;101613.16;5056132;28;46162;-81
2023/10/09 06:45:16;;;;;;;;;13.67;11.33;;;;;17.18;73.23;101619.66;5056348;28;46196;-82
2023/10/09 06:48:09;;;;;;;;;16.00;12.67;;;;;17.19;73.14;101624.97;5056148;28;45377;-80
2023/10/09 06:53:19;;;;;;;;;14.67;13.00;;;;;17.31;72.30;101616.03;5056238;28;45316;-79
2023/10/09 06:55:48;;;;;;;;;16.00;13.67;;;;;17.41;72.12;101616.28;5056323;28;45316;-82
2023/10/09 06:58:27;;;;;;;;;18.00;14.67;;;;;17.48;72.09;101617.59;5056303;28;45337;-81
2023/10/09 07:03:51;;;;;;;;;17.00;14.33;;;;;17.55;71.11;101600.06;5056461;28;45405;-80
2023/10/09 07:06:24;;;;;;;;;15.00;15.00;;;;;17.72;71.08;101612.41;5054579;28;45306;-79
2023/10/09 07:17:15;;;;;;;;;12.67;12.00;;;;;18.00;69.56;101592.47;5055752;28;45954;-82
2023/10/09 07:25:27;;;;;;;;;15.33;14.00;;;;;18.11;68.49;101591.69;5057975;28;45409;-86
2023/10/09 07:27:44;;;;;;;;;14.67;14.67;;;;;18.35;68.62;101621.34;5036879;28;46157;-82
2023/10/09 07:32:56;;;;;;;;;21.33;17.33;;;;;18.68;67.16;101618.94;5056224;28;45354;-83
2023/10/09 07:38:08;;;;;;;;;17.67;17.33;;;;;18.75;66.61;101617.53;5059990;28;45715;-83
2023/10/09 07:43:38;;;;;;;;;23.00;18.33;;;;;18.88;66.06;101630.06;5053149;28;45417;-84
2023/10/09 07:51:32;;;;;;;;;18.33;15.67;;;;;18.99;64.97;101640.91;5045454;28;45511;-80
2023/10/09 07:54:07;;;;;;;;;20.33;17.00;;;;;19.05;65.14;101637.78;5048147;28;45363;-84
2023/10/09 07:56:45;;;;;;;;;17.67;17.00;;;;;18.98;65.25;101625.72;5047695;28;45502;-83
2023/10/09 07:59:12;;;;;;;;;22.33;16.33;;;;;19.10;64.60;101635.56;5059087;28;45373;-81
2023/10/09 08:01:58;;;;;;;;;18.00;14.00;;;;;19.19;64.37;101639.44;5060383;28;45291;-82
2023/10/09 08:07:19;;;;;;;;;17.67;17.33;;;;;19.27;63.84;101632.47;5060993;28;45184;-81
2023/10/09 08:11:19;;;;;;;;;23.67;19.00;;;;;19.39;63.61;101641.44;5055155;28;46127;-83
2023/10/09 08:17:58;;;;;;;;;56.33;38.00;;;;;19.57;63.22;101639.22;5060084;28;45707;-81
2023/10/09 08:20:25;;;;;;;;;33.00;26.67;;;;;19.62;63.03;101647.81;5057999;28;45357;-80
2023/10/09 08:22:55;;;;;;;;;33.33;25.67;;;;;19.61;62.96;101641.56;5058018;28;45376;-81
2023/10/09 08:25:35;;;;;;;;;23.33;21.33;;;;;19.65;63.14;101647.56;5058628;28;45445;-81
2023/10/09 08:28:46;;;;;;;;;70.25;49.00;;;;;19.66;62.59;101643.88;5053461;28;45548;-82
2023/10/09 08:35:55;;;;;;;;;55.00;37.67;;;;;19.61;62.46;101629.91;5058627;28;45539;-83
2023/10/09 08:38:23;;;;;;;;;76.33;49.00;;;;;19.67;61.97;101629.44;5057518;28;46044;-83
2023/10/09 08:40:50;;;;;;;;;55.67;38.33;;;;;19.70;62.04;101629.19;5056462;28;46771;-84
2023/10/09 08:43:20;;;;;;;;;29.67;25.67;;;;;19.92;61.64;101661.66;5061680;28;45380;-85
2023/10/09 08:45:52;;;;;;;;;65.33;45.33;;;;;19.99;61.52;101660.16;5059982;28;45225;-85
2023/10/09 08:48:18;;;;;;;;;46.33;34.67;;;;;19.97;61.25;101656.72;5061620;28;45631;-88
2023/10/09 08:50:45;;;;;;;;;20.67;19.00;;;;;20.06;61.10;101662.41;5063665;28;45394;-84
2023/10/09 08:53:12;;;;;;;;;28.00;24.67;;;;;20.03;60.92;101652.66;5062724;28;45350;-83
2023/10/09 08:55:38;;;;;;;;;26.00;26.00;;;;;20.13;60.59;101669.88;5067424;28;45498;-85
2023/10/09 08:58:26;;;;;;;;;24.67;21.67;;;;;20.10;60.84;101656.63;5060592;28;45481;-83
2023/10/09 09:00:52;;;;;;;;;42.67;30.33;;;;;20.21;60.03;101667.44;5050609;28;46188;-87
2023/10/09 09:03:22;;;;;;;;;29.00;24.00;;;;;20.22;60.19;101671.00;5062377;28;45480;-87
2023/10/09 09:05:56;;;;;;;;;29.67;26.00;;;;;20.22;60.25;101657.50;5060381;28;45322;-81
2023/10/09 09:08:28;;;;;;;;;25.00;24.00;;;;;20.32;59.66;101658.47;5060015;28;45324;-79
2023/10/09 09:11:18;;;;;;;;;40.33;33.00;;;;;20.34;59.98;101664.63;5074383;28;48552;-84
2023/10/09 09:13:58;;;;;;;;;31.33;26.67;;;;;20.39;59.95;101659.69;5062921;28;45336;-86
2023/10/09 09:16:29;;;;;;;;;32.50;27.50;;;;;20.33;59.45;101638.59;5061766;28;45338;-82
2023/10/09 09:19:03;;;;;;;;;20.33;18.33;;;;;20.49;59.50;101657.16;5059669;28;45409;-80
2023/10/09 09:21:29;;;;;;;;;22.33;21.00;;;;;20.38;58.92;101625.56;5055648;28;45546;-81
2023/10/09 09:24:00;;;;;;;;;32.33;29.67;;;;;20.53;58.51;101636.97;5058727;28;45436;-82
2023/10/09 09:26:44;;;;;;;;;43.00;31.67;;;;;20.74;58.43;101661.41;5055875;28;45306;-83
2023/10/09 09:29:10;;;;;;;;;24.00;23.33;;;;;20.81;58.01;101654.50;5043852;28;45224;-82
2023/10/09 09:31:38;;;;;;;;;26.67;25.00;;;;;20.83;57.53;101664.22;5060259;28;46276;-81
2023/10/09 09:34:13;;;;;;;;;67.67;44.33;;;;;20.91;57.55;101655.47;5055563;28;45477;-82
2023/10/09 09:36:59;;;;;;;;;22.33;22.33;;;;;20.96;56.95;101653.22;5055334;28;45420;-85
2023/10/09 09:39:28;;;;;;;;;22.00;20.00;;;;;21.09;56.76;101659.34;5054780;28;45567;-82
2023/10/09 09:42:03;;;;;;;;;26.00;21.00;;;;;21.16;55.60;101657.00;5061949;28;45318;-81
2023/10/09 09:44:32;;;;;;;;;20.00;19.00;;;;;21.11;55.05;101635.75;5063702;28;45184;-82
2023/10/09 09:46:59;;;;;;;;;27.33;22.33;;;;;21.31;54.28;101657.56;5059093;28;45368;-80
2023/10/09 09:49:31;;;;;;;;;21.33;21.00;;;;;21.32;53.56;101651.19;5052261;28;45638;-80
2023/10/09 09:52:03;;;;;;;;;25.33;20.00;;;;;21.46;52.92;101654.41;5057220;28;47353;-83
2023/10/09 09:54:32;;;;;;;;;21.00;19.67;;;;;21.56;52.25;101657.22;5043635;28;45238;-79
2023/10/09 09:57:00;;;;;;;;;24.67;22.00;;;;;21.65;51.52;101656.44;5039965;28;45368;-81
2023/10/09 09:59:29;;;;;;;;;22.67;21.33;;;;;21.76;50.82;101653.66;5042700;28;45340;-82
2023/10/09 10:02:06;;;;;;;;;28.00;26.00;;;;;21.94;50.03;101656.59;5037803;28;45664;-81
2023/10/09 10:04:35;;;;;;;;;19.00;19.00;;;;;22.11;49.58;101649.75;5054428;28;45342;-84
2023/10/09 10:07:08;;;;;;;;;22.33;19.67;;;;;22.31;49.58;101648.00;5061817;28;45793;-82
2023/10/09 10:09:39;;;;;;;;;53.00;31.67;;;;;22.50;48.63;101644.47;5060709;28;45393;-81
2023/10/09 10:12:09;;;;;;;;;21.67;20.00;;;;;22.75;48.06;101649.41;5060303;28;46009;-81
2023/10/09 10:15:28;;;;;;;;;19.00;17.00;;;;;23.05;47.34;101650.34;5058586;28;45452;-80
2023/10/09 10:18:18;;;;;;;;;21.67;20.33;;;;;23.25;47.35;101655.66;5044722;28;45335;-81
2023/10/09 10:21:15;;;;;;;;;18.00;14.67;;;;;23.50;45.21;101651.50;5050107;28;45567;-82
2023/10/09 10:23:42;;;;;;;;;20.67;13.33;;;;;23.71;43.78;101642.38;5052972;28;45302;-81
2023/10/09 10:26:26;;;;;;;;;18.33;14.67;;;;;23.97;43.05;101640.75;5047749;28;45282;-81
2023/10/09 10:29:22;;;;;;;;;18.00;17.00;;;;;24.39;43.75;101651.19;5041427;28;45306;-82
2023/10/09 10:31:51;;;;;;;;;22.33;19.67;;;;;24.61;42.36;101658.97;5044966;28;45361;-79
2023/10/09 10:34:23;;;;;;;;;17.67;14.67;;;;;24.71;42.17;101648.88;5058611;28;55432;-82
2023/10/09 10:36:52;;;;;;;;;13.33;10.00;;;;;24.99;41.25;101659.72;5058355;28;45493;-81
2023/10/09 10:39:21;;;;;;;;;21.33;17.33;;;;;25.17;40.09;101638.84;5057398;28;45259;-80
2023/10/09 10:41:55;;;;;;;;;16.25;12.25;;;;;25.58;38.22;101655.53;5058262;28;45446;-81
2023/10/09 10:44:38;;;;;;;;;14.00;14.00;;;;;25.97;38.12;101649.72;5055464;28;46235;-79
2023/10/09 10:47:32;;;;;;;;;13.75;10.50;;;;;26.30;37.09;101640.69;5055866;28;45552;-80
2023/10/09 10:49:58;;;;;;;;;19.25;17.50;;;;;26.61;35.63;101634.75;5058605;28;45389;-83
2023/10/09 10:52:41;;;;;;;;;17.50;12.00;;;;;26.87;36.25;101627.31;5056605;28;45555;-82
2023/10/09 10:58:13;;;;;;;;;14.00;12.50;;;;;27.35;34.95;101617.50;5040046;28;45288;-83
2023/10/09 11:03:29;;;;;;;;;10.00;8.75;;;;;27.62;33.35;101622.63;5044691;28;45387;-82
2023/10/09 11:05:55;;;;;;;;;9.00;9.00;;;;;27.67;33.38;101630.31;5044648;28;45315;-80
2023/10/09 11:08:32;;;;;;;;;13.25;10.50;;;;;27.87;33.60;101628.94;5056612;28;45560;-85
2023/10/09 11:11:15;;;;;;;;;19.00;16.75;;;;;28.06;31.97;101627.69;5062646;28;45161;-84
2023/10/09 11:13:57;;;;;;;;;15.50;11.75;;;;;28.39;30.92;101619.41;5061731;28;45225;-84
2023/10/09 11:19:12;;;;;;;;;6.20;4.80;;;;;28.76;30.96;101603.09;5058276;28;45247;-81
2023/10/09 11:21:41;;;;;;;;;10.00;10.00;;;;;29.19;28.71;101622.72;5038951;28;45676;-83
2023/10/09 11:24:24;;;;;;;;;10.75;9.00;;;;;29.44;29.63;101619.78;5055797;28;45432;-81
2023/10/09 11:27:05;;;;;;;;;13.60;10.40;;;;;30.02;29.19;101607.22;5057139;28;45544;-82
2023/10/09 11:32:18;;;;;;;;;11.00;7.00;;;;;30.69;26.49;101621.69;5056072;28;45419;-83
2023/10/09 11:34:53;;;;;;;;;8.60;8.60;;;;;30.84;26.43;101627.13;5058374;28;45490;-84
2023/10/09 11:39:58;;;;;;;;;15.20;12.60;;;;;31.01;25.95;101609.38;5055892;28;45286;-80
2023/10/09 11:42:48;;;;;;;;;7.20;7.20;;;;;31.11;23.72;101615.38;5054650;28;45443;-82
2023/10/09 11:45:28;;;;;;;;;8.00;6.20;;;;;31.34;24.43;101614.38;5056390;28;45468;-81
2023/10/09 11:47:57;;;;;;;;;10.40;8.40;;;;;31.53;24.01;101612.84;5055507;28;45447;-81
2023/10/09 11:50:53;;;;;;;;;8.60;6.60;;;;;31.56;24.22;101613.31;5051761;28;45446;-80
2023/10/09 11:55:52;;;;;;;;;15.00;12.80;;;;;31.60;22.57;101608.25;5057489;28;45587;-84
2023/10/09 11:58:24;;;;;;;;;17.00;11.20;;;;;31.49;21.56;101579.38;5056830;28;45762;-83
2023/10/09 12:00:51;;;;;;;;;19.60;6.80;;;;;31.52;22.28;101606.50;5056486;28;45311;-85
2023/10/09 12:03:21;;;;;;;;;59.33;35.33;;;;;31.38;22.83;101599.16;5053877;28;45292;-82
2023/10/09 12:05:47;;;;;;;;;14.80;8.20;;;;;31.40;23.21;101603.44;5055660;28;45317;-81
2023/10/09 12:08:15;;;;;;;;;9.75;6.75;;;;;31.23;23.73;101595.66;5055016;28;45520;-81
2023/10/09 12:10:41;;;;;;;;;11.80;8.80;;;;;31.16;23.69;101594.72;5062541;28;45290;-82
2023/10/09 12:13:07;;;;;;;;;10.50;4.75;;;;;31.09;24.10;101590.00;5066203;27;45473;-87
2023/10/09 12:15:37;;;;;;;;;21.00;14.40;;;;;31.25;24.38;101593.56;5051215;28;45510;-81
2023/10/09 12:18:18;;;;;;;;;11.40;10.20;;;;;31.43;23.53;101580.19;5050178;28;45441;-81
2023/10/09 12:21:02;;;;;;;;;9.60;8.20;;;;;31.82;23.21;101584.31;5036887;28;45395;-80
2023/10/09 12:23:28;;;;;;;;;10.80;9.20;;;;;32.25;23.73;101579.47;5039902;28;45247;-81
2023/10/09 12:25:56;;;;;;;;;9.00;7.75;;;;;33.06;23.37;101582.31;5055563;28;45593;-81
2023/10/09 12:28:23;;;;;;;;;10.60;9.20;;;;;33.98;22.71;101575.94;5058748;28;45389;-82
2023/10/09 12:30:51;;;;;;;;;13.60;11.80;;;;;34.70;22.38;101576.75;5058895;28;45377;-79
2023/10/09 12:33:27;;;;;;;;;10.40;8.60;;;;;35.66;20.66;101574.53;5059573;28;45370;-80
2023/10/09 12:35:58;;;;;;;;;6.80;6.80;;;;;36.77;19.88;101575.38;5059098;28;45382;-80
2023/10/09 12:38:31;;;;;;;;;10.20;8.20;;;;;37.51;18.64;101564.84;5057923;28;46141;-80
2023/10/09 12:43:47;;;;;;;;;8.00;8.00;;;;;39.38;17.43;101559.53;5059494;28;45413;-82
2023/10/09 12:46:16;;;;;;;;;6.00;6.00;;;;;40.04;17.72;101545.75;5058818;28;45579;-82
2023/10/09 12:48:47;;;;;;;;;8.20;7.20;;;;;40.31;17.17;101535.50;5059250;28;45974;-80
2023/10/09 12:51:18;;;;;;;;;8.80;8.00;;;;;40.81;16.65;101545.53;5058874;28;45385;-79
2023/10/09 12:53:45;;;;;;;;;5.20;5.20;;;;;40.75;16.31;101540.16;5058327;28;45385;-80
2023/10/09 12:56:14;;;;;;;;;5.20;5.20;;;;;40.34;17.08;101546.13;5057252;28;45295;-80
2023/10/09 12:58:52;;;;;;;;;7.00;5.40;;;;;39.83;16.88;101532.63;5055289;28;46132;-80
2023/10/09 13:01:19;;;;;;;;;8.40;6.80;;;;;39.65;17.44;101542.97;5057812;28;45359;-80
2023/10/09 13:03:48;;;;;;;;;16.80;14.60;;;;;40.22;17.54;101539.00;5057947;28;45239;-80
2023/10/09 13:06:15;;;;;;;;;9.00;7.20;;;;;40.57;16.97;101539.44;5057955;28;45486;-85
2023/10/09 13:08:40;;;;;;;;;7.40;7.40;;;;;40.00;17.27;101531.50;5053129;28;45437;-83
2023/10/09 13:11:10;;;;;;;;;13.50;10.75;;;;;38.47;17.96;101510.59;5038560;28;45466;-81
2023/10/09 13:13:41;;;;;;;;;8.60;6.40;;;;;37.16;19.60;101529.56;5050737;28;45495;-80
2023/10/09 13:16:08;;;;;;;;;7.00;5.60;;;;;35.87;20.06;101529.00;5058375;28;45435;-82
2023/10/09 13:18:34;;;;;;;;;7.00;6.00;;;;;34.87;20.71;101512.44;5056843;28;46161;-80
2023/10/09 13:21:03;;;;;;;;;6.40;6.40;;;;;34.24;21.50;101514.25;5057847;28;45249;-82
2023/10/09 13:23:38;;;;;;;;;9.20;9.20;;;;;33.67;22.21;101526.97;5058962;28;45576;-84
2023/10/09 13:26:08;;;;;;;;;8.00;7.00;;;;;33.23;22.85;101522.97;5056672;28;45379;-84
2023/10/09 13:28:37;;;;;;;;;7.60;7.60;;;;;32.76;23.48;101512.94;5055370;28;45541;-86
2023/10/09 13:31:04;;;;;;;;;12.00;9.60;;;;;32.35;23.64;101524.06;5059275;28;45283;-82
2023/10/09 13:33:36;;;;;;;;;12.80;12.80;;;;;32.03;24.00;101517.34;5058638;28;45432;-82
2023/10/09 13:36:02;;;;;;;;;5.80;5.80;;;;;31.67;24.45;101522.00;5059953;28;45231;-81
2023/10/09 13:38:27;;;;;;;;;10.50;8.75;;;;;31.30;24.65;101509.47;5055414;28;46073;-81
2023/10/09 13:41:01;;;;;;;;;6.00;6.00;;;;;31.18;24.91;101510.19;5051796;28;47852;-81
2023/10/09 13:43:28;;;;;;;;;7.40;6.20;;;;;30.99;25.11;101512.59;5057519;28;45252;-82
2023/10/09 13:45:53;;;;;;;;;15.20;11.20;;;;;30.69;25.72;101511.00;5056715;28;45444;-89
2023/10/09 13:48:20;;;;;;;;;9.00;7.25;;;;;30.39;26.36;101524.81;5058346;28;45992;-83
2023/10/09 13:50:47;;;;;;;;;8.00;7.00;;;;;30.18;26.72;101508.28;5073041;28;45423;-84
2023/10/09 13:53:14;;;;;;;;;9.00;9.00;;;;;30.13;27.75;101511.63;5058023;28;45435;-81
2023/10/09 13:55:43;;;;;;;;;8.40;7.00;;;;;29.85;27.30;101486.75;5060019;28;45560;-80